createdAt,value
2022-12-09T15:59:57.423Z,27.92
2022-12-09T16:02:27.809Z,25.95
2022-12-09T16:04:57.580Z,24.48
2022-12-09T16:07:25.320Z,25.83
2022-12-09T16:24:13.126Z,23.60
2022-12-09T16:26:44.894Z,22.83
2022-12-09T16:29:22.760Z,20.35
2022-12-09T16:32:12.103Z,18.67
2022-12-09T16:34:39.833Z,20.10
2022-12-09T16:37:25.149Z,20.45
2022-12-09T16:39:53.156Z,21.48
2022-12-09T16:42:33.184Z,18.50
2022-12-09T16:45:21.751Z,21.38
2022-12-09T16:47:55.564Z,21.08
2022-12-09T16:50:26.341Z,20.05
2022-12-09T16:52:54.145Z,21.45
2022-12-09T16:55:23.229Z,23.20
2022-12-09T16:57:51.271Z,22.98
2022-12-09T17:00:19.522Z,21.35
2022-12-09T17:02:50.881Z,24.92
2022-12-09T17:05:18.602Z,23.02
2022-12-09T17:07:46.152Z,22.80
2022-12-09T17:10:14.420Z,23.02
2022-12-09T17:12:42.609Z,24.30
2022-12-09T17:15:14.403Z,23.13
2022-12-09T17:17:48.224Z,21.23
2022-12-09T17:20:16.568Z,22.38
2022-12-09T17:22:44.464Z,19.65
2022-12-09T17:25:12.434Z,19.83
2022-12-09T17:27:39.953Z,21.17
2022-12-09T17:30:08.231Z,21.98
2022-12-09T17:32:35.884Z,20.90
2022-12-09T17:35:07.487Z,19.42
2022-12-09T17:37:39.868Z,19.25
2022-12-09T17:40:07.969Z,19.33
2022-12-09T17:42:35.910Z,20.20
2022-12-09T17:45:04.597Z,20.27
2022-12-09T17:47:32.487Z,18.48
2022-12-09T17:50:01.336Z,19.17
2022-12-09T17:52:29.003Z,18.38
2022-12-09T17:54:56.558Z,17.20
2022-12-09T17:57:24.358Z,16.63
2022-12-09T17:59:51.888Z,14.18
2022-12-09T18:02:19.643Z,13.00
2022-12-09T18:04:47.237Z,13.02
2022-12-09T18:07:14.970Z,13.27
2022-12-09T18:09:42.758Z,12.68
2022-12-09T18:12:10.405Z,11.65
2022-12-09T18:14:38.279Z,12.70
2022-12-09T18:17:06.019Z,11.55
2022-12-09T18:19:35.351Z,11.80
2022-12-09T18:22:03.058Z,13.35
2022-12-09T18:24:30.739Z,12.27
2022-12-09T18:26:58.519Z,11.75
2022-12-09T18:29:26.330Z,13.38
2022-12-09T18:31:57.384Z,12.80
2022-12-09T18:34:28.288Z,13.23
2022-12-09T18:36:56.212Z,11.95
2022-12-09T18:39:23.686Z,10.68
2022-12-09T18:41:51.372Z,12.88
2022-12-09T18:44:18.844Z,13.88
2022-12-09T18:46:48.064Z,13.35
2022-12-09T18:49:17.838Z,14.32
2022-12-09T18:51:45.659Z,14.38
2022-12-09T18:54:18.148Z,13.95
2022-12-09T18:56:46.234Z,14.93
2022-12-09T18:59:13.895Z,16.05
2022-12-09T19:01:42.933Z,16.60
2022-12-09T19:04:18.610Z,16.73
2022-12-09T19:06:47.183Z,16.25
2022-12-09T19:09:28.678Z,17.40
2022-12-09T19:11:56.965Z,16.35
2022-12-09T19:14:24.846Z,19.00
2022-12-09T19:16:52.565Z,18.30
2022-12-09T19:19:22.130Z,17.65
2022-12-09T19:21:49.896Z,16.10
2022-12-09T19:24:22.514Z,17.38
2022-12-09T19:26:50.174Z,17.58
2022-12-09T19:32:52.525Z,20.02
2022-12-09T19:35:20.560Z,20.23
2022-12-09T19:37:48.168Z,20.35
2022-12-09T19:40:16.284Z,20.70
2022-12-09T19:42:43.818Z,21.52
2022-12-09T19:45:14.247Z,22.88
2022-12-09T19:47:42.502Z,21.90
2022-12-09T19:50:10.494Z,22.50
2022-12-09T19:52:38.280Z,22.40
2022-12-09T19:55:06.478Z,24.30
2022-12-09T19:57:34.066Z,22.90
2022-12-09T20:00:01.597Z,24.35
2022-12-09T20:02:32.725Z,24.85
2022-12-09T20:05:00.406Z,25.00
2022-12-09T20:07:28.085Z,24.77
2022-12-09T20:09:55.943Z,25.90
2022-12-09T20:12:23.512Z,27.23
2022-12-09T20:14:51.007Z,27.65
2022-12-09T20:17:18.685Z,27.08
2022-12-09T20:19:47.113Z,26.30
2022-12-09T20:22:14.843Z,27.20
2022-12-09T20:24:43.500Z,27.35
2022-12-09T20:27:11.369Z,28.33
2022-12-09T20:29:38.935Z,29.17
2022-12-09T20:32:09.006Z,30.65
2022-12-09T20:34:36.713Z,33.40
2022-12-09T20:37:04.738Z,31.35
2022-12-09T20:39:32.330Z,31.02
2022-12-09T20:42:00.010Z,33.10
2022-12-09T20:44:27.657Z,33.25
2022-12-09T20:46:55.156Z,33.17
2022-12-09T20:49:26.847Z,31.70
2022-12-09T20:51:54.719Z,36.33
2022-12-09T20:54:23.140Z,32.80
2022-12-09T20:56:51.138Z,32.83
2022-12-09T20:59:18.696Z,34.65
2022-12-09T21:01:47.481Z,33.63
2022-12-09T21:04:15.378Z,32.53
2022-12-09T21:06:43.118Z,33.20
2022-12-09T21:09:14.117Z,31.10
2022-12-09T21:11:41.906Z,33.25
2022-12-09T21:14:10.224Z,32.75
2022-12-09T21:16:39.253Z,31.70
2022-12-09T21:19:10.143Z,31.45
2022-12-09T21:21:39.029Z,31.25
2022-12-09T21:24:07.182Z,32.30
2022-12-09T21:26:34.872Z,32.05
2022-12-09T21:29:02.423Z,33.03
2022-12-09T21:31:34.391Z,31.05
2022-12-09T21:34:03.631Z,30.15
2022-12-09T21:36:33.835Z,32.55
2022-12-09T21:39:01.775Z,31.08
2022-12-09T21:41:30.902Z,31.90
2022-12-09T21:43:58.588Z,30.38
2022-12-09T21:46:30.886Z,29.33
2022-12-09T21:49:03.632Z,27.83
2022-12-09T21:51:32.598Z,29.63
2022-12-09T21:54:00.303Z,27.95
2022-12-09T21:56:30.355Z,29.42
2022-12-09T21:58:58.399Z,28.95
2022-12-09T22:01:30.404Z,30.17
2022-12-09T22:04:00.291Z,30.30
2022-12-09T22:06:28.441Z,28.67
2022-12-09T22:08:56.250Z,28.30
2022-12-09T22:11:25.167Z,30.73
2022-12-09T22:13:53.076Z,29.13
2022-12-09T22:16:22.250Z,28.45
2022-12-09T22:18:50.105Z,31.58
2022-12-09T22:21:26.981Z,29.67
2022-12-09T22:23:56.277Z,30.30
2022-12-09T22:26:24.607Z,31.85
2022-12-09T22:28:52.480Z,31.23
2022-12-09T22:31:29.075Z,30.45
2022-12-09T22:33:58.888Z,31.83
2022-12-09T22:36:26.674Z,29.25
2022-12-09T22:38:54.511Z,29.80
2022-12-09T22:41:23.532Z,30.73
2022-12-09T22:43:51.398Z,28.95
2022-12-09T22:46:24.551Z,29.05
2022-12-09T22:48:52.302Z,29.27
2022-12-09T22:51:28.158Z,31.15
2022-12-09T22:53:56.331Z,30.45
2022-12-09T22:56:25.260Z,28.67
2022-12-09T22:58:52.808Z,30.55
2022-12-09T23:01:26.978Z,30.77
2022-12-09T23:03:55.722Z,29.98
2022-12-09T23:06:23.737Z,29.88
2022-12-09T23:08:51.461Z,30.63
2022-12-09T23:11:21.169Z,30.45
2022-12-09T23:13:49.018Z,28.80
2022-12-09T23:16:19.053Z,29.10
2022-12-09T23:18:46.852Z,28.83
2022-12-09T23:21:19.337Z,29.92
2022-12-09T23:23:47.645Z,27.20
2022-12-09T23:26:17.009Z,26.45
2022-12-09T23:28:46.168Z,26.35
2022-12-09T23:31:14.601Z,26.05
2022-12-09T23:33:43.603Z,26.52
2022-12-09T23:36:16.229Z,26.20
2022-12-09T23:38:44.266Z,27.00
2022-12-09T23:41:12.649Z,26.58
2022-12-09T23:43:40.381Z,27.75
2022-12-09T23:46:15.195Z,28.92
2022-12-09T23:48:44.454Z,27.05
2022-12-09T23:51:17.659Z,27.25
2022-12-09T23:53:45.761Z,27.33
2022-12-09T23:56:18.518Z,26.25
2022-12-09T23:58:46.370Z,27.58
